Time;durP1;ratioP1;P1;durP2;ratioP2;P2;SDS_P1;SDS_P2;PMS_P1;PMS_P2;Temp;Humidity;BMP_temperature;BMP_pressure;BME280_temperature;BME280_humidity;BME280_pressure;Samples;Min_cycle;Max_cycle;Signal;HPM_P1;HPM_P2
2022/08/20 00:00:14;;;;;;;3.22;1.63;;;22.30;95.60;;;;;;5013588;28;20515;-68
2022/08/20 00:02:46;;;;;;;2.45;2.25;;;22.30;95.80;;;;;;5013701;28;20022;-68
2022/08/20 00:05:13;;;;;;;2.30;1.63;;;22.30;96.00;;;;;;5013321;28;20073;-68
2022/08/20 00:07:39;;;;;;;3.05;1.85;;;22.30;96.10;;;;;;5013714;28;20080;-68
2022/08/20 00:10:06;;;;;;;2.55;2.30;;;22.20;96.20;;;;;;5012960;28;20030;-69
2022/08/20 00:12:33;;;;;;;2.05;1.85;;;22.20;96.20;;;;;;5013455;28;20034;-69
2022/08/20 00:14:58;;;;;;;2.85;1.90;;;22.20;96.40;;;;;;5013277;28;20399;-68
2022/08/20 00:17:24;;;;;;;2.88;2.15;;;22.10;96.40;;;;;;5012867;28;20033;-69
2022/08/20 00:19:50;;;;;;;2.60;2.00;;;22.10;96.70;;;;;;5012960;28;20050;-68
2022/08/20 00:22:15;;;;;;;2.95;2.00;;;22.10;96.90;;;;;;5013036;28;20037;-69
2022/08/20 00:24:42;;;;;;;5.32;1.98;;;22.10;97.10;;;;;;5012996;28;20446;-68
2022/08/20 00:27:07;;;;;;;3.15;2.05;;;22.00;97.10;;;;;;5012981;28;20034;-67
2022/08/20 00:29:33;;;;;;;2.45;1.70;;;22.00;97.20;;;;;;5013366;28;20025;-68
2022/08/20 00:31:59;;;;;;;2.38;1.60;;;22.00;97.30;;;;;;5013268;28;20030;-68
2022/08/20 00:34:25;;;;;;;2.33;1.77;;;22.00;97.30;;;;;;5012904;28;20026;-68
2022/08/20 00:36:50;;;;;;;2.15;1.95;;;22.00;97.30;;;;;;5013224;28;20445;-68
2022/08/20 00:39:16;;;;;;;3.53;1.75;;;22.00;97.40;;;;;;5012716;28;20025;-68
2022/08/20 00:41:42;;;;;;;4.07;1.58;;;22.00;97.40;;;;;;5013086;28;20026;-68
2022/08/20 00:44:18;;;;;;;4.60;1.63;;;22.10;97.50;;;;;;5012688;28;20034;-69
2022/08/20 00:46:45;;;;;;;4.15;1.70;;;22.10;97.30;;;;;;5013294;28;20151;-69
2022/08/20 00:49:37;;;;;;;2.05;1.48;;;22.10;97.10;;;;;;5012484;28;20037;-69
2022/08/20 00:52:14;;;;;;;2.05;1.75;;;22.20;96.90;;;;;;5008692;28;20478;-69
2022/08/20 00:54:45;;;;;;;5.00;1.92;;;22.20;96.80;;;;;;5013339;28;20490;-69
2022/08/20 00:57:21;;;;;;;2.42;1.83;;;22.20;96.80;;;;;;5012907;28;20037;-69
2022/08/20 00:59:50;;;;;;;1.98;1.50;;;22.20;96.50;;;;;;5013048;28;20493;-69
2022/08/20 01:02:16;;;;;;;2.50;1.75;;;22.30;96.40;;;;;;5012223;28;20402;-69
2022/08/20 01:04:48;;;;;;;2.13;1.40;;;22.30;96.10;;;;;;5012886;28;20025;-69
2022/08/20 01:07:14;;;;;;;2.05;1.70;;;22.30;96.20;;;;;;5012654;28;20057;-69
2022/08/20 01:09:39;;;;;;;2.33;1.67;;;22.30;96.10;;;;;;5013003;28;20057;-69
2022/08/20 01:12:06;;;;;;;2.38;1.65;;;22.30;96.00;;;;;;5012668;28;20120;-71
2022/08/20 01:17:07;;;;;;;1.40;1.30;;;22.20;95.80;;;;;;5012797;28;20030;-68
2022/08/20 01:19:38;;;;;;;1.90;1.65;;;22.20;95.70;;;;;;5012515;28;20044;-69
2022/08/20 01:23:25;;;;;;;1.60;1.35;;;22.20;95.70;;;;;;5012620;28;20065;-68
2022/08/20 01:25:00;;;;;;;1.40;1.30;;;22.20;95.80;;;;;;5012298;28;20041;-69
2022/08/20 01:27:26;;;;;;;2.40;1.52;;;22.20;96.00;;;;;;5012273;28;20115;-69
2022/08/20 01:29:53;;;;;;;2.35;1.48;;;22.10;96.00;;;;;;5012663;28;20030;-69
2022/08/20 01:32:18;;;;;;;1.95;1.50;;;22.10;96.10;;;;;;5011280;28;20049;-69
2022/08/20 01:34:44;;;;;;;1.80;1.40;;;22.10;96.00;;;;;;5013513;28;20455;-68
2022/08/20 01:37:10;;;;;;;1.85;1.20;;;22.10;96.10;;;;;;5015980;28;20026;-69
2022/08/20 01:39:36;;;;;;;1.45;1.15;;;22.00;95.90;;;;;;5016609;28;20041;-68
2022/08/20 01:42:08;;;;;;;1.67;1.40;;;22.00;96.10;;;;;;5016847;28;20052;-68
2022/08/20 01:44:36;;;;;;;1.63;1.30;;;22.00;96.00;;;;;;5016437;28;20382;-69
2022/08/20 01:47:14;;;;;;;2.75;1.42;;;22.00;95.90;;;;;;5016331;28;20109;-69
2022/08/20 01:49:43;;;;;;;1.88;1.27;;;22.00;96.00;;;;;;5016254;28;20030;-68
2022/08/20 01:52:14;;;;;;;2.45;1.20;;;22.00;95.90;;;;;;5015687;28;20478;-70
2022/08/20 01:54:40;;;;;;;1.50;1.40;;;21.90;95.90;;;;;;5016052;28;20034;-68
2022/08/20 01:57:13;;;;;;;1.25;1.00;;;21.90;95.90;;;;;;5016433;28;20338;-68
2022/08/20 01:59:39;;;;;;;1.60;1.40;;;21.90;96.00;;;;;;5016205;28;20041;-69
2022/08/20 02:02:06;;;;;;;1.75;1.27;;;21.90;95.90;;;;;;5016160;28;20155;-67
2022/08/20 02:04:32;;;;;;;1.00;0.90;;;21.90;96.00;;;;;;5015488;28;20037;-68
2022/08/20 02:07:03;;;;;;;2.63;1.17;;;21.80;96.10;;;;;;5016081;28;20041;-68
2022/08/20 02:09:32;;;;;;;0.98;0.88;;;21.80;96.00;;;;;;5015854;28;20030;-68
2022/08/20 02:11:58;;;;;;;1.20;0.90;;;21.70;96.20;;;;;;5016025;28;20387;-69
2022/08/20 02:14:27;;;;;;;1.15;0.93;;;21.70;96.20;;;;;;5015499;28;20370;-69
2022/08/20 02:16:57;;;;;;;1.10;1.00;;;21.70;96.30;;;;;;5015730;28;20026;-68
2022/08/20 02:19:37;;;;;;;1.55;1.02;;;21.70;96.10;;;;;;5015205;28;20049;-67
2022/08/20 02:22:12;;;;;;;1.00;0.90;;;21.70;96.20;;;;;;5015700;28;20029;-69
2022/08/20 02:24:38;;;;;;;1.02;0.85;;;21.70;96.20;;;;;;5015673;28;20026;-69
2022/08/20 02:27:04;;;;;;;1.20;0.88;;;21.70;96.00;;;;;;5015936;28;20033;-69
2022/08/20 02:29:29;;;;;;;1.08;0.88;;;21.60;96.10;;;;;;5015057;28;20026;-70
2022/08/20 02:31:55;;;;;;;1.00;0.90;;;21.60;96.00;;;;;;5015892;28;20467;-68
2022/08/20 02:34:21;;;;;;;1.20;1.00;;;21.60;95.90;;;;;;5014961;28;20022;-68
2022/08/20 02:36:48;;;;;;;0.95;0.85;;;21.60;95.90;;;;;;5015498;28;20026;-67
2022/08/20 02:39:13;;;;;;;0.80;0.80;;;21.60;95.70;;;;;;5015019;28;20471;-70
2022/08/20 02:41:40;;;;;;;0.60;0.60;;;21.60;95.60;;;;;;5015483;28;20040;-69
2022/08/20 02:44:07;;;;;;;1.10;0.93;;;21.60;95.50;;;;;;5015654;28;20036;-69
2022/08/20 02:46:34;;;;;;;0.85;0.82;;;21.60;95.40;;;;;;5014780;28;20116;-69
2022/08/20 02:49:00;;;;;;;1.38;0.93;;;21.60;95.30;;;;;;5015246;28;20152;-70
2022/08/20 02:51:26;;;;;;;0.95;0.85;;;21.60;95.30;;;;;;5014582;28;20081;-69
2022/08/20 02:53:52;;;;;;;1.08;0.98;;;21.60;95.30;;;;;;5015124;28;20183;-68
2022/08/20 02:56:18;;;;;;;1.33;0.90;;;21.60;95.30;;;;;;5014776;28;20560;-68
2022/08/20 02:58:44;;;;;;;2.45;1.00;;;21.60;95.20;;;;;;5015305;28;20037;-67
2022/08/20 03:01:12;;;;;;;0.95;0.80;;;21.60;95.20;;;;;;5014712;28;20030;-68
2022/08/20 03:03:39;;;;;;;0.52;0.52;;;21.60;95.00;;;;;;5014163;28;20036;-67
2022/08/20 03:06:06;;;;;;;1.80;0.90;;;21.60;94.90;;;;;;4997172;28;20370;-69
2022/08/20 03:08:33;;;;;;;0.88;0.80;;;21.60;94.90;;;;;;5014363;28;20065;-67
2022/08/20 03:10:58;;;;;;;0.63;0.60;;;21.60;94.90;;;;;;5014666;28;20095;-69
2022/08/20 03:13:24;;;;;;;0.90;0.80;;;21.60;94.70;;;;;;5014336;28;20038;-70
2022/08/20 03:15:57;;;;;;;1.15;0.93;;;21.50;94.70;;;;;;5014702;28;20037;-69
2022/08/20 03:18:27;;;;;;;0.93;0.82;;;21.60;95.00;;;;;;5014437;28;20455;-69
2022/08/20 03:20:52;;;;;;;0.65;0.65;;;21.50;94.70;;;;;;5014171;28;20092;-69
2022/08/20 03:23:19;;;;;;;1.88;1.00;;;21.50;94.80;;;;;;5013847;28;20470;-70
2022/08/20 03:25:46;;;;;;;1.00;0.85;;;21.50;94.70;;;;;;5014491;28;20447;-71
2022/08/20 03:28:13;;;;;;;1.08;0.98;;;21.50;94.70;;;;;;5014791;28;20391;-67
2022/08/20 03:30:39;;;;;;;1.10;0.73;;;21.50;94.70;;;;;;5013843;28;20038;-67
2022/08/20 03:33:05;;;;;;;0.82;0.82;;;21.50;94.70;;;;;;5014224;28;20087;-67
2022/08/20 03:35:32;;;;;;;0.90;0.85;;;21.40;94.80;;;;;;5011258;28;20022;-70
2022/08/20 03:37:58;;;;;;;1.10;1.00;;;21.40;95.00;;;;;;5013574;28;20026;-69
2022/08/20 03:40:31;;;;;;;2.28;0.68;;;21.40;95.00;;;;;;5010400;28;20022;-69
2022/08/20 03:42:57;;;;;;;1.55;0.90;;;21.40;95.00;;;;;;5014223;28;20044;-69
2022/08/20 03:45:24;;;;;;;0.80;0.68;;;21.40;95.00;;;;;;5013546;28;20045;-69
2022/08/20 03:47:52;;;;;;;0.63;0.50;;;21.40;95.00;;;;;;5014455;28;20032;-69
2022/08/20 03:50:22;;;;;;;0.68;0.55;;;21.40;94.90;;;;;;5013335;28;20538;-69
2022/08/20 03:52:48;;;;;;;0.88;0.70;;;21.40;94.90;;;;;;5014218;28;20168;-69
2022/08/20 03:55:14;;;;;;;0.80;0.70;;;21.40;94.90;;;;;;5013547;28;20108;-67
2022/08/20 03:57:45;;;;;;;0.80;0.70;;;21.40;94.90;;;;;;5013613;28;20129;-67
2022/08/20 04:00:13;;;;;;;0.55;0.50;;;21.40;94.90;;;;;;5013843;28;20033;-70
2022/08/20 04:02:39;;;;;;;0.70;0.70;;;21.40;95.00;;;;;;5013183;28;20077;-68
2022/08/20 04:05:05;;;;;;;2.08;0.73;;;21.40;94.90;;;;;;5013349;28;20034;-68
2022/08/20 04:07:31;;;;;;;1.05;0.82;;;21.40;94.70;;;;;;5013382;28;20032;-69
2022/08/20 04:09:57;;;;;;;0.77;0.63;;;21.50;94.70;;;;;;5013735;28;20459;-69
2022/08/20 04:12:24;;;;;;;0.50;0.50;;;21.50;94.70;;;;;;5013254;28;20497;-69
2022/08/20 04:14:51;;;;;;;1.48;0.90;;;21.50;94.60;;;;;;5013636;28;20097;-68
2022/08/20 04:17:20;;;;;;;1.17;0.90;;;21.50;94.30;;;;;;5013581;28;20113;-69
2022/08/20 04:19:46;;;;;;;1.30;0.95;;;21.50;94.30;;;;;;4995593;28;20050;-68
2022/08/20 04:22:12;;;;;;;1.35;0.90;;;21.50;94.30;;;;;;5013453;28;20075;-70
2022/08/20 04:24:39;;;;;;;1.13;0.80;;;21.50;94.20;;;;;;5012947;28;20477;-68
2022/08/20 04:27:06;;;;;;;1.05;0.70;;;21.60;94.10;;;;;;5013338;28;20048;-69
2022/08/20 04:29:33;;;;;;;0.80;0.63;;;21.50;94.10;;;;;;5012822;28;20034;-69
2022/08/20 04:32:00;;;;;;;1.80;0.55;;;21.60;94.10;;;;;;5013056;28;20030;-68
2022/08/20 04:34:25;;;;;;;0.93;0.70;;;21.50;93.90;;;;;;5013027;28;20044;-69
2022/08/20 04:36:51;;;;;;;0.85;0.70;;;21.50;93.90;;;;;;5012994;28;20034;-67
2022/08/20 04:39:17;;;;;;;1.33;0.90;;;21.50;93.90;;;;;;5012874;28;20026;-69
2022/08/20 04:41:43;;;;;;;0.73;0.73;;;21.50;93.90;;;;;;5012729;28;20108;-69
2022/08/20 04:44:09;;;;;;;0.65;0.60;;;21.50;93.90;;;;;;4995378;28;20396;-69
2022/08/20 04:46:36;;;;;;;1.00;0.70;;;21.60;93.90;;;;;;5012748;28;20030;-69
2022/08/20 04:49:03;;;;;;;1.33;0.80;;;21.60;93.90;;;;;;5012871;28;20363;-69
2022/08/20 04:51:29;;;;;;;2.03;0.80;;;21.60;93.90;;;;;;5012253;28;20030;-70
2022/08/20 04:53:56;;;;;;;0.80;0.70;;;21.60;93.70;;;;;;4995780;28;20065;-69
2022/08/20 04:56:25;;;;;;;0.93;0.80;;;21.60;93.50;;;;;;5012714;28;20030;-72
2022/08/20 04:58:52;;;;;;;0.88;0.80;;;21.60;93.50;;;;;;5012840;28;20453;-69
2022/08/20 05:01:18;;;;;;;0.57;0.57;;;21.60;93.60;;;;;;5012740;28;20029;-69
2022/08/20 05:03:46;;;;;;;0.80;0.80;;;21.60;93.50;;;;;;5011992;28;20040;-68
2022/08/20 05:06:12;;;;;;;1.27;0.70;;;21.60;93.40;;;;;;5012796;28;20038;-68
2022/08/20 05:08:39;;;;;;;1.05;0.80;;;21.60;93.40;;;;;;5012278;28;20589;-68
2022/08/20 05:11:06;;;;;;;0.77;0.77;;;21.60;93.30;;;;;;5012399;28;20026;-69
2022/08/20 05:13:31;;;;;;;0.70;0.60;;;21.60;92.90;;;;;;5012551;28;20481;-68
2022/08/20 05:16:00;;;;;;;1.50;0.85;;;21.70;92.80;;;;;;5013106;28;20101;-69
2022/08/20 05:18:26;;;;;;;1.20;0.80;;;21.70;92.80;;;;;;5012118;28;20040;-69
2022/08/20 05:20:53;;;;;;;0.82;0.77;;;21.70;92.80;;;;;;5012542;28;20038;-69
2022/08/20 05:23:20;;;;;;;0.80;0.80;;;21.80;92.50;;;;;;5012595;28;20136;-68
2022/08/20 05:25:50;;;;;;;0.80;0.75;;;21.80;92.20;;;;;;5011934;28;20061;-69
2022/08/20 05:28:22;;;;;;;1.20;1.00;;;21.90;92.20;;;;;;5012308;28;20494;-68
2022/08/20 05:30:49;;;;;;;0.77;0.60;;;22.00;92.00;;;;;;5012117;28;20038;-68
2022/08/20 05:33:18;;;;;;;0.80;0.80;;;22.00;91.50;;;;;;5011459;28;20030;-70
2022/08/20 05:35:45;;;;;;;0.50;0.50;;;22.00;91.40;;;;;;4992972;28;20026;-70
2022/08/20 05:38:14;;;;;;;0.60;0.60;;;22.10;91.40;;;;;;4992775;28;20027;-68
2022/08/20 05:40:41;;;;;;;0.55;0.55;;;22.10;91.30;;;;;;4992496;28;20027;-68
2022/08/20 05:43:07;;;;;;;0.80;0.80;;;22.10;91.20;;;;;;5010344;28;20036;-68
2022/08/20 05:45:36;;;;;;;1.13;0.60;;;22.20;91.10;;;;;;5012127;28;20038;-69
2022/08/20 05:48:10;;;;;;;1.08;0.80;;;22.20;90.90;;;;;;5012497;28;20114;-68
2022/08/20 05:50:37;;;;;;;0.47;0.40;;;22.30;90.80;;;;;;5012062;28;20026;-69
2022/08/20 05:53:03;;;;;;;0.63;0.60;;;22.40;90.50;;;;;;5011914;28;20034;-68
2022/08/20 05:55:29;;;;;;;0.50;0.50;;;22.50;89.70;;;;;;4994270;28;20490;-69
2022/08/20 05:58:00;;;;;;;0.50;0.50;;;22.60;89.30;;;;;;5012548;28;20383;-68
2022/08/20 06:00:28;;;;;;;0.43;0.43;;;22.80;88.60;;;;;;5011732;28;20501;-71
2022/08/20 06:05:38;;;;;;;0.50;0.50;;;22.80;88.20;;;;;;5011748;28;20514;-69
2022/08/20 06:08:08;;;;;;;0.82;0.60;;;22.80;88.20;;;;;;5012408;28;20108;-69
2022/08/20 06:10:35;;;;;;;1.35;0.50;;;22.70;88.20;;;;;;5011855;28;20029;-68
2022/08/20 06:13:01;;;;;;;0.98;0.57;;;22.70;88.50;;;;;;5012050;28;20128;-69
2022/08/20 06:15:28;;;;;;;0.50;0.38;;;22.50;88.70;;;;;;5012035;28;20485;-70
2022/08/20 06:17:53;;;;;;;0.50;0.50;;;22.50;89.20;;;;;;5015075;28;20475;-69
2022/08/20 06:20:19;;;;;;;1.38;0.70;;;22.50;89.70;;;;;;5015919;28;20046;-69
2022/08/20 06:22:45;;;;;;;0.40;0.40;;;22.40;89.70;;;;;;5015281;28;20032;-69
2022/08/20 06:25:11;;;;;;;0.43;0.43;;;22.40;89.90;;;;;;5015293;28;20034;-69
2022/08/20 06:27:39;;;;;;;0.40;0.40;;;22.40;90.00;;;;;;5014791;28;20070;-69
2022/08/20 06:30:06;;;;;;;0.50;0.50;;;22.40;90.00;;;;;;5015641;28;20065;-69
2022/08/20 06:32:32;;;;;;;0.50;0.50;;;22.50;90.00;;;;;;5015105;28;20080;-69
2022/08/20 06:35:00;;;;;;;0.40;0.30;;;22.60;89.40;;;;;;5015473;28;20072;-69
2022/08/20 06:37:27;;;;;;;0.90;0.68;;;22.70;89.60;;;;;;5015426;28;20030;-69
2022/08/20 06:39:53;;;;;;;0.40;0.40;;;22.80;88.60;;;;;;5014990;28;20133;-69
2022/08/20 06:42:20;;;;;;;0.32;0.32;;;22.90;88.30;;;;;;4997891;28;20506;-68
2022/08/20 06:44:48;;;;;;;0.47;0.47;;;23.00;88.20;;;;;;4997278;28;20034;-69
2022/08/20 06:47:14;;;;;;;0.90;0.47;;;23.10;86.90;;;;;;5015098;28;20114;-68
2022/08/20 06:49:40;;;;;;;0.85;0.60;;;23.10;86.30;;;;;;5014805;28;20026;-69
2022/08/20 06:52:06;;;;;;;0.50;0.50;;;23.20;86.10;;;;;;5015065;28;20461;-69
2022/08/20 06:54:33;;;;;;;0.70;0.52;;;23.30;85.90;;;;;;5014839;28;20351;-70
2022/08/20 06:56:59;;;;;;;0.50;0.50;;;23.40;85.30;;;;;;5015093;28;20465;-69
2022/08/20 06:59:25;;;;;;;0.73;0.57;;;23.40;85.60;;;;;;5014645;28;20030;-70
2022/08/20 07:01:53;;;;;;;0.32;0.30;;;23.30;84.90;;;;;;5014481;28;20481;-68
2022/08/20 07:04:19;;;;;;;0.50;0.50;;;23.40;85.20;;;;;;5014786;28;20072;-69
2022/08/20 07:06:45;;;;;;;0.63;0.50;;;23.40;84.40;;;;;;5014122;28;20030;-68
2022/08/20 07:09:10;;;;;;;0.57;0.50;;;23.30;84.30;;;;;;5014834;28;20037;-68
2022/08/20 07:11:36;;;;;;;1.23;0.50;;;23.30;84.50;;;;;;5014592;28;20022;-68
2022/08/20 07:14:04;;;;;;;2.40;0.45;;;23.30;84.00;;;;;;5014402;28;20037;-70
2022/08/20 07:16:31;;;;;;;0.60;0.60;;;23.40;84.40;;;;;;5014601;28;20398;-69
2022/08/20 07:18:57;;;;;;;0.82;0.68;;;23.40;84.00;;;;;;5014311;28;20105;-69
2022/08/20 07:21:23;;;;;;;0.60;0.57;;;23.50;83.60;;;;;;5014313;28;20104;-69
2022/08/20 07:23:49;;;;;;;0.88;0.70;;;23.60;83.50;;;;;;5013850;28;20140;-69
2022/08/20 07:26:15;;;;;;;0.75;0.60;;;23.80;83.60;;;;;;5014421;28;20037;-69
2022/08/20 07:28:41;;;;;;;0.60;0.55;;;24.10;81.10;;;;;;5013333;28;20028;-69
2022/08/20 07:33:51;;;;;;;0.82;0.55;;;24.70;79.10;;;;;;4993993;28;20049;-69
2022/08/20 07:36:17;;;;;;;1.13;0.70;;;25.10;77.10;;;;;;4994708;28;20030;-68
2022/08/20 07:38:45;;;;;;;1.17;0.70;;;25.10;75.90;;;;;;4993960;28;20030;-68
2022/08/20 07:41:13;;;;;;;0.30;0.30;;;25.00;75.40;;;;;;4994517;28;20026;-68
2022/08/20 07:43:40;;;;;;;0.60;0.50;;;24.90;75.50;;;;;;4994402;28;20128;-68
2022/08/20 07:46:08;;;;;;;1.05;0.50;;;24.50;76.30;;;;;;5011680;28;20525;-69
2022/08/20 07:48:38;;;;;;;1.20;0.50;;;24.50;77.60;;;;;;5014014;28;20072;-68
2022/08/20 07:51:05;;;;;;;0.40;0.40;;;24.90;77.20;;;;;;5013973;28;20033;-69
2022/08/20 07:53:33;;;;;;;1.27;0.40;;;26.10;73.00;;;;;;5013841;28;20030;-68
2022/08/20 07:56:00;;;;;;;0.40;0.40;;;26.80;70.70;;;;;;5013438;28;20077;-69
2022/08/20 07:58:25;;;;;;;0.28;0.28;;;27.20;68.20;;;;;;5013655;28;20022;-69
2022/08/20 08:00:51;;;;;;;0.90;0.70;;;28.00;65.10;;;;;;5012987;28;20470;-69
2022/08/20 08:03:18;;;;;;;0.63;0.50;;;28.30;62.50;;;;;;4996069;28;20486;-68
2022/08/20 08:05:47;;;;;;;0.20;0.20;;;28.50;61.20;;;;;;5013035;28;20413;-69
2022/08/20 08:08:20;;;;;;;0.40;0.40;;;28.50;60.20;;;;;;5013613;28;20112;-69
2022/08/20 08:10:49;;;;;;;0.65;0.32;;;29.20;60.10;;;;;;5012886;28;20030;-69
2022/08/20 08:13:15;;;;;;;0.38;0.38;;;29.80;57.20;;;;;;5013402;28;20121;-69
2022/08/20 08:15:45;;;;;;;0.30;0.30;;;30.80;55.40;;;;;;5013149;28;20093;-69
2022/08/20 08:18:13;;;;;;;;;;;31.40;53.30;;;;;;5013876;28;20030;-68
2022/08/20 08:20:41;;;;;;;0.77;0.40;;;32.00;51.80;;;;;;5012521;28;19948;-69
2022/08/20 08:23:12;;;;;;;0.65;0.40;;;32.60;49.50;;;;;;5013355;28;20033;-69
2022/08/20 08:25:38;;;;;;;;;;;32.60;49.90;;;;;;5013552;28;20066;-69
2022/08/20 08:28:04;;;;;;;0.22;0.22;;;32.60;48.60;;;;;;5013427;28;19905;-69
2022/08/20 08:30:30;;;;;;;0.20;0.20;;;32.80;48.00;;;;;;5013265;28;20078;-69
2022/08/20 08:35:44;;;;;;;0.45;0.40;;;33.00;46.90;;;;;;5012679;28;20037;-69
2022/08/20 08:38:10;;;;;;;0.82;0.30;;;32.50;46.60;;;;;;5012861;28;20022;-69
2022/08/20 08:40:36;;;;;;;0.95;0.50;;;32.20;48.30;;;;;;5012979;28;20418;-68
2022/08/20 08:43:04;;;;;;;0.20;0.20;;;31.90;48.60;;;;;;5012917;28;20029;-69
2022/08/20 08:45:44;;;;;;;0.47;0.30;;;31.70;49.20;;;;;;5012753;28;20034;-69
2022/08/20 08:48:17;;;;;;;0.57;0.40;;;31.20;50.10;;;;;;4995569;28;20351;-69
2022/08/20 08:50:47;;;;;;;0.57;0.55;;;31.00;50.60;;;;;;5012150;28;20026;-69
2022/08/20 08:53:25;;;;;;;0.43;0.35;;;30.30;51.50;;;;;;5012735;28;20030;-69
2022/08/20 08:55:50;;;;;;;0.35;0.35;;;29.50;53.20;;;;;;4994676;28;20084;-68
2022/08/20 08:58:16;;;;;;;0.60;0.45;;;28.90;54.50;;;;;;5013286;28;20026;-70
2022/08/20 09:00:43;;;;;;;1.92;0.32;;;28.60;55.60;;;;;;5012459;28;20025;-70
2022/08/20 09:03:16;;;;;;;0.90;0.43;;;28.20;57.20;;;;;;5012641;28;20037;-69
2022/08/20 09:05:50;;;;;;;0.80;0.43;;;28.00;58.20;;;;;;5012233;28;20022;-70
2022/08/20 09:08:23;;;;;;;0.30;0.30;;;27.70;59.10;;;;;;5012439;28;20041;-68
2022/08/20 09:10:49;;;;;;;0.60;0.50;;;27.30;59.70;;;;;;5012408;28;20183;-68
2022/08/20 09:13:15;;;;;;;1.95;0.60;;;27.00;61.20;;;;;;5012364;28;20503;-68
2022/08/20 09:15:41;;;;;;;2.05;0.55;;;26.60;62.10;;;;;;5012342;28;20029;-71
2022/08/20 09:18:06;;;;;;;0.50;0.50;;;26.30;63.00;;;;;;5012347;28;20498;-68
2022/08/20 09:20:32;;;;;;;0.40;0.40;;;26.10;63.90;;;;;;5012600;28;20054;-68
2022/08/20 09:22:58;;;;;;;0.40;0.40;;;25.90;64.80;;;;;;5012070;28;20057;-68
2022/08/20 09:25:24;;;;;;;1.20;0.60;;;25.70;66.20;;;;;;4994908;28;20370;-68
2022/08/20 09:27:50;;;;;;;0.40;0.40;;;25.70;66.20;;;;;;5012271;28;20025;-68
2022/08/20 09:30:16;;;;;;;0.55;0.40;;;25.50;66.50;;;;;;5012363;28;20132;-68
2022/08/20 09:32:42;;;;;;;0.52;0.50;;;25.40;67.30;;;;;;5012060;28;20032;-71
2022/08/20 09:35:09;;;;;;;0.52;0.50;;;25.30;67.60;;;;;;5009196;28;20498;-68
2022/08/20 09:37:35;;;;;;;0.60;0.60;;;25.30;67.70;;;;;;5012417;28;20026;-68
2022/08/20 09:40:01;;;;;;;0.73;0.73;;;25.30;67.60;;;;;;5012138;28;20021;-68
2022/08/20 09:42:29;;;;;;;0.55;0.55;;;25.30;67.30;;;;;;5012244;28;20391;-68
2022/08/20 09:44:56;;;;;;;0.50;0.50;;;25.20;67.30;;;;;;5013080;28;20091;-68
2022/08/20 09:47:22;;;;;;;5.13;0.80;;;25.30;68.20;;;;;;5007680;28;20218;-68
2022/08/20 09:49:48;;;;;;;1.02;0.90;;;25.30;68.30;;;;;;5012116;28;20026;-68
2022/08/20 09:52:30;;;;;;;2.35;0.70;;;25.30;67.50;;;;;;5013050;28;20057;-68
2022/08/20 09:55:03;;;;;;;3.40;0.63;;;25.30;67.70;;;;;;5015970;28;20440;-68
2022/08/20 09:57:30;;;;;;;0.70;0.70;;;25.40;68.00;;;;;;5016321;28;20129;-68
2022/08/20 10:00:07;;;;;;;0.60;0.60;;;25.50;68.00;;;;;;5015794;28;20041;-69
2022/08/20 10:02:33;;;;;;;1.23;0.85;;;25.60;67.60;;;;;;5016282;28;20018;-68
2022/08/20 10:04:58;;;;;;;0.60;0.60;;;25.60;66.80;;;;;;5015368;28;20041;-69
2022/08/20 10:07:24;;;;;;;0.85;0.82;;;25.70;66.70;;;;;;5016115;28;20025;-68
2022/08/20 10:09:50;;;;;;;0.90;0.90;;;25.80;67.30;;;;;;5015545;28;20022;-68
2022/08/20 10:12:16;;;;;;;0.68;0.68;;;25.90;66.30;;;;;;5015994;28;20022;-68
2022/08/20 10:14:41;;;;;;;0.82;0.70;;;26.00;67.00;;;;;;5016113;28;20394;-68
2022/08/20 10:17:07;;;;;;;0.98;0.80;;;26.10;65.90;;;;;;5015208;28;20467;-68
2022/08/20 10:19:33;;;;;;;1.08;0.98;;;26.20;66.10;;;;;;5015504;28;20084;-68
2022/08/20 10:21:59;;;;;;;0.60;0.60;;;26.30;65.60;;;;;;5015389;28;20041;-68
2022/08/20 10:24:25;;;;;;;2.40;0.60;;;26.40;65.30;;;;;;5015547;28;20038;-68
2022/08/20 10:26:55;;;;;;;0.80;0.80;;;26.40;65.30;;;;;;5015389;28;20038;-68
2022/08/20 10:29:20;;;;;;;0.90;0.90;;;26.50;64.40;;;;;;5015612;28;20081;-69
2022/08/20 10:31:46;;;;;;;0.65;0.65;;;26.60;64.80;;;;;;5014939;28;20053;-71
2022/08/20 10:34:12;;;;;;;0.68;0.68;;;26.60;64.50;;;;;;5015585;28;20381;-69
2022/08/20 10:36:37;;;;;;;1.00;0.90;;;26.60;64.10;;;;;;5015273;28;20497;-69
2022/08/20 10:39:03;;;;;;;0.65;0.65;;;26.60;63.90;;;;;;5015048;28;20030;-69
2022/08/20 10:41:29;;;;;;;1.20;0.75;;;26.60;63.80;;;;;;5015493;28;20048;-69
2022/08/20 10:43:54;;;;;;;0.88;0.85;;;26.70;64.20;;;;;;5014646;28;20034;-69
2022/08/20 10:46:21;;;;;;;0.50;0.50;;;26.70;64.20;;;;;;5015307;28;20105;-68
2022/08/20 10:48:47;;;;;;;0.57;0.57;;;26.80;63.70;;;;;;5014918;28;20037;-70
2022/08/20 10:51:12;;;;;;;0.70;0.70;;;26.90;63.50;;;;;;5015182;28;20370;-69
2022/08/20 10:53:38;;;;;;;0.55;0.55;;;26.90;63.30;;;;;;5014968;28;20030;-69
2022/08/20 10:56:04;;;;;;;1.63;0.80;;;26.90;63.00;;;;;;5014829;28;20502;-69
2022/08/20 10:58:30;;;;;;;0.88;0.70;;;26.90;63.00;;;;;;5015179;28;20061;-68
2022/08/20 11:00:55;;;;;;;0.50;0.50;;;26.80;63.70;;;;;;5014784;28;20026;-69
2022/08/20 11:03:21;;;;;;;0.73;0.60;;;26.80;63.60;;;;;;5014940;28;20041;-68
2022/08/20 11:05:47;;;;;;;1.13;0.70;;;26.70;63.90;;;;;;5015106;28;20079;-68
2022/08/20 11:08:13;;;;;;;0.70;0.70;;;26.60;64.10;;;;;;5014555;28;20471;-68
2022/08/20 11:10:39;;;;;;;0.90;0.80;;;26.50;63.90;;;;;;5014617;28;20113;-68
2022/08/20 11:13:06;;;;;;;0.82;0.73;;;26.50;64.20;;;;;;5014502;28;20034;-67
2022/08/20 11:15:37;;;;;;;0.85;0.70;;;26.50;64.50;;;;;;5014746;28;20410;-68
2022/08/20 11:18:04;;;;;;;0.70;0.70;;;26.40;64.40;;;;;;5014759;28;20048;-67
2022/08/20 11:20:30;;;;;;;0.70;0.70;;;26.30;64.50;;;;;;5014269;28;20077;-67
2022/08/20 11:22:57;;;;;;;0.80;0.60;;;26.30;65.30;;;;;;4996714;28;20446;-68
2022/08/20 11:25:24;;;;;;;0.93;0.88;;;26.30;65.10;;;;;;5014798;28;20037;-67
2022/08/20 11:27:51;;;;;;;1.10;1.00;;;26.20;65.20;;;;;;5014520;28;20030;-68
2022/08/20 11:30:34;;;;;;;1.35;0.95;;;26.20;65.60;;;;;;5014726;28;20471;-68
2022/08/20 11:33:01;;;;;;;1.02;0.90;;;26.00;66.10;;;;;;5014364;28;20106;-69
2022/08/20 11:35:29;;;;;;;1.48;0.90;;;26.00;66.20;;;;;;5014297;28;20084;-69
2022/08/20 11:37:56;;;;;;;1.50;1.00;;;25.90;66.30;;;;;;5010800;28;20060;-69
2022/08/20 11:40:23;;;;;;;1.27;1.05;;;25.70;66.30;;;;;;5014333;28;20030;-68
2022/08/20 11:42:49;;;;;;;0.80;0.80;;;25.60;67.10;;;;;;5014334;28;20095;-68
2022/08/20 11:45:15;;;;;;;1.10;1.00;;;25.40;67.80;;;;;;5013795;28;20030;-69
2022/08/20 11:47:41;;;;;;;1.88;1.10;;;25.30;68.50;;;;;;5014122;28;20102;-69
2022/08/20 11:50:17;;;;;;;1.23;0.90;;;25.30;69.00;;;;;;5013691;28;20049;-68
2022/08/20 11:52:42;;;;;;;1.05;0.85;;;25.10;69.60;;;;;;5014106;28;20416;-68
2022/08/20 11:55:10;;;;;;;1.23;0.90;;;25.10;70.20;;;;;;5013079;28;20056;-69
2022/08/20 11:57:40;;;;;;;1.20;1.10;;;25.00;70.50;;;;;;5013879;28;20030;-68
2022/08/20 12:00:12;;;;;;;1.15;0.80;;;25.00;70.80;;;;;;5013833;28;20033;-68
2022/08/20 12:02:38;;;;;;;1.20;1.00;;;24.90;71.00;;;;;;5014119;28;20129;-69
2022/08/20 12:05:04;;;;;;;1.17;1.08;;;24.80;71.80;;;;;;5013478;28;20569;-69
2022/08/20 12:07:30;;;;;;;1.13;1.00;;;24.70;72.20;;;;;;5014175;28;20068;-69
2022/08/20 12:09:55;;;;;;;1.13;1.00;;;24.70;72.50;;;;;;5013254;28;20053;-69
2022/08/20 12:12:22;;;;;;;1.50;1.23;;;24.70;72.60;;;;;;5013923;28;20022;-69
2022/08/20 12:14:53;;;;;;;1.48;1.13;;;24.50;73.00;;;;;;5013450;28;20033;-69
2022/08/20 12:17:28;;;;;;;3.50;1.38;;;24.40;73.40;;;;;;5013874;28;20034;-69
2022/08/20 12:19:56;;;;;;;2.08;1.40;;;24.30;73.60;;;;;;5013116;28;20042;-72
2022/08/20 12:22:22;;;;;;;1.88;1.40;;;24.20;74.00;;;;;;5013477;28;20030;-69
2022/08/20 12:24:48;;;;;;;1.40;1.10;;;24.20;74.50;;;;;;5013370;28;20045;-69
2022/08/20 12:27:20;;;;;;;1.42;1.02;;;24.10;74.70;;;;;;5013338;28;20034;-69
2022/08/20 12:29:47;;;;;;;3.13;1.40;;;23.90;75.20;;;;;;5013753;28;20034;-69
2022/08/20 12:32:13;;;;;;;1.30;1.20;;;23.90;75.70;;;;;;5012998;28;20029;-70
2022/08/20 12:34:41;;;;;;;1.55;1.20;;;23.80;76.30;;;;;;5013476;28;20037;-69
2022/08/20 12:37:16;;;;;;;1.25;1.05;;;23.70;76.80;;;;;;4995289;28;20394;-69
2022/08/20 12:39:45;;;;;;;1.55;1.38;;;23.60;76.80;;;;;;5013287;28;20033;-69
2022/08/20 12:42:11;;;;;;;1.60;1.30;;;23.60;76.90;;;;;;5012812;28;20083;-69
2022/08/20 12:44:38;;;;;;;1.60;1.35;;;23.60;77.20;;;;;;5012845;28;20045;-69
2022/08/20 12:47:18;;;;;;;2.25;1.55;;;23.50;77.40;;;;;;5012506;28;20414;-70
2022/08/20 12:49:47;;;;;;;2.08;1.45;;;23.40;77.60;;;;;;5012855;28;20482;-69
2022/08/20 12:52:14;;;;;;;1.50;1.15;;;23.30;78.20;;;;;;5012470;28;20030;-69
2022/08/20 12:54:40;;;;;;;2.90;1.30;;;23.20;78.90;;;;;;5012771;28;20470;-69
2022/08/20 12:57:12;;;;;;;1.20;1.10;;;23.00;80.00;;;;;;5012174;28;20473;-69
2022/08/20 12:59:37;;;;;;;1.23;1.13;;;23.00;80.20;;;;;;5013226;28;20034;-69